Al Cenac — WDD5445 — position and weather

sailwx.info

Track history (hours):
 
Tides and Currents Weather Stations Pressure Air Temp Water Temp Dewpoint Dewpoint Depression Visibility Wind Speed Wind Dir Waves Ship Positions

Al Cenac

Owner: Caillou Island Towing Co, Inc., Houma, LA. More information available from US FCC via Universal Licensing System and Coast Guard Vessel Documentation Center.

Last reported at 2017-Mar-24 05:33 UTC. Time now 2017-Mar-24 06:13 UTC.
Position N 40°38' W 074°08'.

; draft 10 m.

Type: Tug. MMSI: 367158530.

Date/timePositionNaut miles runAvg speedWind from/ knotsBaromVisibWave heightAir tempDewpointWater temp
2017-Mar-24 05:33N 40°38' W 074°08'0 0.0
2017-Mar-24 04:33N 40°38' W 074°08'0 0.0
2017-Mar-24 03:33N 40°38' W 074°08'0 0.0
2017-Mar-24 02:33N 40°38' W 074°08'0 0.0
2017-Mar-24 01:34N 40°38' W 074°08'0 0.0
2017-Mar-24 00:33N 40°38' W 074°08'0 0.0
2017-Mar-23 23:31N 40°38' W 074°08'2 1.6
2017-Mar-23 22:33N 40°38' W 074°10'0 0.0
2017-Mar-23 21:32N 40°38' W 074°10'4 1.2
2017-Mar-23 18:26N 40°35' W 074°12'4 4.2
2017-Mar-23 17:34N 40°39' W 074°10'1 1.4
2017-Mar-23 16:33N 40°38' W 074°08'0 0.0
2017-Mar-23 15:30N 40°38' W 074°08'0 0.0
2017-Mar-23 14:24N 40°38' W 074°08'0 0.0
2017-Mar-23 13:33N 40°38' W 074°08'2 2.0
2017-Mar-23 12:33N 40°39' W 074°11'1 1.2
2017-Mar-23 11:26N 40°38' W 074°12'2 1.7
2017-Mar-23 10:27N 40°39' W 074°10'0 0.0
2017-Mar-23 09:34N 40°39' W 074°10'2 0.3
2017-Mar-23 04:11N 40°38' W 074°08'0 0.0
2017-Mar-23 03:33N 40°38' W 074°08'0 0.0
2017-Mar-23 02:34N 40°38' W 074°08'0 0.0
2017-Mar-23 01:34N 40°38' W 074°08'8 5.7
2017-Mar-23 00:11N 40°33' W 074°15'1 0.3
2017-Mar-22 21:06N 40°33' W 074°14'4 7.8
2017-Mar-22 20:33N 40°37' W 074°12'3 3.4
2017-Mar-22 19:32N 40°38' W 074°08'0 0.0
2017-Mar-22 18:08N 40°38' W 074°08'6 9.5
2017-Mar-22 17:34N 40°41' W 074°01'1 0.9
2017-Mar-22 16:33N 40°40' W 074°01'0 0.0
2017-Mar-22 15:33N 40°40' W 074°01'2 2.3
2017-Mar-22 14:34N 40°39' W 074°03'4 3.8
2017-Mar-22 13:33N 40°38' W 074°08'0 0.0
2017-Mar-22 12:32N 40°38' W 074°08'0 0.0
2017-Mar-22 11:33N 40°38' W 074°08'0 0.0
2017-Mar-22 10:33N 40°38' W 074°08'0 0.0
2017-Mar-22 09:33N 40°38' W 074°08'0 0.0
2017-Mar-22 08:33N 40°38' W 074°08'0 0.0
2017-Mar-22 07:33N 40°38' W 074°08'0 0.0
2017-Mar-22 06:32N 40°38' W 074°08'0 0.0
2017-Mar-22 05:33N 40°38' W 074°08'0 0.0
2017-Mar-22 04:33N 40°38' W 074°08'0 0.0
2017-Mar-22 03:32N 40°38' W 074°08'0 0.0
2017-Mar-22 02:33N 40°38' W 074°08'0 0.0
2017-Mar-22 01:32N 40°38' W 074°08'0 0.0
2017-Mar-22 00:32N 40°38' W 074°08'2 1.9
2017-Mar-21 23:33N 40°40' W 074°08'4 3.9
2017-Mar-21 22:33N 40°44' W 074°06'3 2.9
2017-Mar-21 21:33N 40°41' W 074°08'2 2.1
2017-Mar-21 20:26N 40°39' W 074°09'0 0.0
2017-Mar-21 19:33N 40°39' W 074°09'1 0.8
2017-Mar-21 18:33N 40°38' W 074°08'0 0.0
2017-Mar-21 17:33N 40°38' W 074°08'0 0.0
2017-Mar-21 16:33N 40°38' W 074°08'0 0.0
2017-Mar-21 15:33N 40°38' W 074°08'0 0.0
2017-Mar-21 14:33N 40°38' W 074°08'0 0.0
2017-Mar-21 13:33N 40°38' W 074°08'0 0.0
2017-Mar-21 12:33N 40°38' W 074°08'0 0.0
2017-Mar-21 11:33N 40°38' W 074°08'0 0.0
2017-Mar-21 10:32N 40°38' W 074°08'0 0.0
2017-Mar-21 09:33N 40°38' W 074°08'0 0.0
2017-Mar-21 08:33N 40°38' W 074°08'1 0.7
2017-Mar-21 07:22N 40°39' W 074°09'2 2.1
2017-Mar-21 06:34N 40°39' W 074°06'2 1.8
2017-Mar-21 05:33N 40°39' W 074°04'0 0.0
2017-Mar-21 04:34N 40°39' W 074°04'0 0.0
2017-Mar-21 03:33N 40°39' W 074°04'0 0.0
2017-Mar-21 02:34N 40°39' W 074°04'0 0.0
2017-Mar-21 01:34N 40°39' W 074°04'0 0.0
2017-Mar-21 00:32N 40°39' W 074°04'1 1.0
2017-Mar-20 23:34N 40°39' W 074°03'0 0.0
2017-Mar-20 22:33N 40°39' W 074°03'0 0.0
2017-Mar-20 21:34N 40°39' W 074°03'0 0.1
2017-Mar-20 20:33N 40°39' W 074°03'0 0.0
2017-Mar-20 19:34N 40°39' W 074°03'0 0.0
2017-Mar-20 18:33N 40°39' W 074°03'0 0.0
2017-Mar-20 17:34N 40°39' W 074°03'0 0.1
2017-Mar-20 16:34N 40°39' W 074°03'0 0.0
2017-Mar-20 15:34N 40°39' W 074°03'0 0.0
2017-Mar-20 14:34N 40°39' W 074°03'0 0.0
2017-Mar-20 13:33N 40°39' W 074°03'0 0.0
2017-Mar-20 12:33N 40°39' W 074°03'0 0.0
2017-Mar-20 11:33N 40°39' W 074°03'0 0.0
2017-Mar-20 10:34N 40°39' W 074°03'0 0.0
2017-Mar-20 09:33N 40°39' W 074°03'3 2.7
2017-Mar-20 08:31N 40°39' W 074°07'4 4.3
2017-Mar-20 07:33N 40°43' W 074°07'1 1.2
2017-Mar-20 06:33N 40°44' W 074°06'0 0.0
2017-Mar-20 05:33N 40°44' W 074°06'0 0.0
2017-Mar-20 04:33N 40°44' W 074°06'3 3.3
2017-Mar-20 03:33N 40°41' W 074°08'3 2.5
2017-Mar-20 02:33N 40°38' W 074°08'0 0.0
2017-Mar-20 01:33N 40°38' W 074°08'0 0.0
2017-Mar-20 00:33N 40°38' W 074°08'0 0.0
2017-Mar-19 23:33N 40°38' W 074°08'0 0.0
2017-Mar-19 22:33N 40°38' W 074°08'0 0.0
2017-Mar-19 21:33N 40°38' W 074°08'0 0.0
2017-Mar-19 20:33N 40°38' W 074°08'0 0.0
2017-Mar-19 19:33N 40°38' W 074°08'0 0.0
2017-Mar-19 18:33N 40°38' W 074°08'0 0.0
2017-Mar-19 17:33N 40°38' W 074°08'0 0.0
2017-Mar-19 16:33N 40°38' W 074°08'0 0.0
2017-Mar-19 15:33N 40°38' W 074°08'0 0.0
2017-Mar-19 14:33N 40°38' W 074°08'0 0.0
2017-Mar-19 13:33N 40°38' W 074°08'0 0.0
2017-Mar-19 12:33N 40°38' W 074°08'0 0.0
2017-Mar-19 11:33N 40°38' W 074°08'0 0.0
2017-Mar-19 10:33N 40°38' W 074°08'0 0.0
2017-Mar-19 09:33N 40°38' W 074°08'0 0.0
2017-Mar-19 08:33N 40°38' W 074°08'0 0.0
2017-Mar-19 07:33N 40°38' W 074°08'0 0.0
2017-Mar-19 06:33N 40°38' W 074°08'0 0.0
2017-Mar-19 05:33N 40°38' W 074°08'0 0.0
2017-Mar-19 04:33N 40°38' W 074°08'0 0.0
2017-Mar-19 03:33N 40°38' W 074°08'0 0.0
2017-Mar-19 02:33N 40°38' W 074°08'0 0.0
2017-Mar-19 01:33N 40°38' W 074°08'0 0.0
2017-Mar-19 00:33N 40°38' W 074°08'0 0.0
2017-Mar-18 23:33N 40°38' W 074°08'0 0.0
2017-Mar-18 22:33N 40°38' W 074°08'0 0.0
2017-Mar-18 21:33N 40°38' W 074°08'0 0.0
2017-Mar-18 20:33N 40°38' W 074°08'0 0.0
2017-Mar-18 19:33N 40°38' W 074°08'0 0.0
2017-Mar-18 18:33N 40°38' W 074°08'0 0.0
2017-Mar-18 17:33N 40°38' W 074°08'0 0.0
2017-Mar-18 16:33N 40°38' W 074°08'0 0.0
2017-Mar-18 15:33N 40°38' W 074°08'0 0.0
2017-Mar-18 14:33N 40°38' W 074°08'0 0.0
2017-Mar-18 13:33N 40°38' W 074°08'0 0.0
2017-Mar-18 12:33N 40°38' W 074°08'0 0.0
2017-Mar-18 11:33N 40°38' W 074°08'0 0.0
2017-Mar-18 10:33N 40°38' W 074°08'0 0.0
2017-Mar-18 09:33N 40°38' W 074°08'0 0.0
2017-Mar-18 08:33N 40°38' W 074°08'0 0.0
2017-Mar-18 07:33N 40°38' W 074°08'0 0.0
2017-Mar-18 06:33N 40°38' W 074°08'0 0.0
2017-Mar-18 05:33N 40°38' W 074°08'0 0.0
2017-Mar-18 04:33N 40°38' W 074°08'0 0.0
2017-Mar-18 03:33N 40°38' W 074°08'0 0.0
2017-Mar-18 02:33N 40°38' W 074°08'0 0.0
2017-Mar-18 01:33N 40°38' W 074°08'0 0.0
2017-Mar-17 22:33N 40°38' W 074°08'0 0.0
2017-Mar-17 21:33N 40°38' W 074°08'0 0.0
2017-Mar-17 20:33N 40°38' W 074°08'0 0.0
2017-Mar-17 19:33N 40°38' W 074°08'0 0.0
2017-Mar-17 18:33N 40°38' W 074°08'0 0.0
2017-Mar-17 17:32N 40°38' W 074°08'0 0.0
2017-Mar-17 16:33N 40°38' W 074°08'0 0.0
2017-Mar-17 15:33N 40°38' W 074°08'0 0.0
2017-Mar-17 14:33N 40°38' W 074°08'0 0.0
2017-Mar-17 13:33N 40°38' W 074°08'0 0.0
2017-Mar-17 12:33N 40°38' W 074°08'0 0.0
2017-Mar-17 11:31N 40°38' W 074°08'0 0.0
2017-Mar-17 10:33N 40°38' W 074°08'0 0.0
2017-Mar-17 09:33N 40°38' W 074°08'0 0.0
2017-Mar-17 08:33N 40°38' W 074°08'0 0.0
2017-Mar-17 07:33N 40°38' W 074°08'0 0.0
2017-Mar-17 06:32N 40°38' W 074°08'0 0.0
2017-Mar-17 05:33N 40°38' W 074°08'0 0.0
2017-Mar-17 04:33N 40°38' W 074°08'0 0.0
2017-Mar-17 03:33N 40°38' W 074°08'0 0.0
2017-Mar-17 02:33N 40°38' W 074°08'0 0.0
2017-Mar-17 01:33N 40°38' W 074°08'0 0.0
2017-Mar-17 00:33N 40°38' W 074°08'0 0.0
2017-Mar-16 23:33N 40°38' W 074°08'0 0.0
2017-Mar-16 22:33N 40°38' W 074°08'0 0.0
2017-Mar-16 21:33N 40°38' W 074°08'0 0.0
2017-Mar-16 20:33N 40°38' W 074°08'0 0.0
2017-Mar-16 19:32N 40°38' W 074°08'0 0.0
2017-Mar-16 18:33N 40°38' W 074°08'0 0.0
2017-Mar-16 17:33N 40°38' W 074°08'0 0.0
2017-Mar-16 16:33N 40°38' W 074°08'0 0.0
2017-Mar-16 15:33N 40°38' W 074°08'0 0.0
2017-Mar-16 13:33N 40°38' W 074°08'0 0.0
2017-Mar-16 12:33N 40°38' W 074°08'0 0.0
2017-Mar-16 11:33N 40°38' W 074°08'0 0.0
2017-Mar-16 10:32N 40°38' W 074°08'0 0.0
2017-Mar-16 09:32N 40°38' W 074°08'0 0.0
2017-Mar-16 08:33N 40°38' W 074°08'0 0.0
2017-Mar-16 07:32N 40°38' W 074°08'0 0.0
2017-Mar-16 06:33N 40°38' W 074°08'0 0.0
2017-Mar-16 05:33N 40°38' W 074°08'0 0.0
2017-Mar-16 04:33N 40°38' W 074°08'0 0.0
2017-Mar-16 03:33N 40°38' W 074°08'0 0.0
2017-Mar-16 02:30N 40°38' W 074°08'0 0.0
2017-Mar-16 01:33N 40°38' W 074°08'0 0.0
2017-Mar-16 00:31N 40°38' W 074°08'0 0.0
2017-Mar-15 23:32N 40°38' W 074°08'0 0.0
2017-Mar-15 22:33N 40°38' W 074°08'0 0.0
2017-Mar-15 21:33N 40°38' W 074°08'0 0.0
2017-Mar-15 20:32N 40°38' W 074°08'0 0.0
2017-Mar-15 19:33N 40°38' W 074°08'0 0.0
2017-Mar-15 18:33N 40°38' W 074°08'0 0.0
2017-Mar-15 17:33N 40°38' W 074°08'0 0.0
2017-Mar-15 16:33N 40°38' W 074°08'0 0.0
2017-Mar-15 15:33N 40°38' W 074°08'0 0.0
2017-Mar-15 14:33N 40°38' W 074°08'0 0.0
2017-Mar-15 13:33N 40°38' W 074°08'0 0.0
2017-Mar-15 12:33N 40°38' W 074°08'0 0.0
2017-Mar-15 11:33N 40°38' W 074°08'0 0.0
2017-Mar-15 10:33N 40°38' W 074°08'0 0.0
2017-Mar-15 09:33N 40°38' W 074°08'0 0.0
2017-Mar-15 08:33N 40°38' W 074°08'0 0.0
2017-Mar-15 07:33N 40°38' W 074°08'0 0.0
2017-Mar-15 06:33N 40°38' W 074°08'0 0.0
2017-Mar-15 05:33N 40°38' W 074°08'0 0.0
2017-Mar-15 04:33N 40°38' W 074°08'0 0.0
2017-Mar-15 03:33N 40°38' W 074°08'0 0.0
2017-Mar-15 02:33N 40°38' W 074°08'0 0.0
2017-Mar-15 01:33N 40°38' W 074°08'0 0.0
2017-Mar-15 00:33N 40°38' W 074°08'0 0.0
2017-Mar-14 23:33N 40°38' W 074°08'0 0.0
2017-Mar-14 22:33N 40°38' W 074°08'0 0.0
2017-Mar-14 21:33N 40°38' W 074°08'0 0.0
2017-Mar-14 20:33N 40°38' W 074°08'0 0.0
2017-Mar-14 19:33N 40°38' W 074°08'0 0.0
2017-Mar-14 18:33N 40°38' W 074°08'0 0.0
2017-Mar-14 17:33N 40°38' W 074°08'0 0.0
2017-Mar-14 16:33N 40°38' W 074°08'0 0.0
2017-Mar-14 15:33N 40°38' W 074°08'0 0.0
2017-Mar-14 14:33N 40°38' W 074°08'0 0.0
2017-Mar-14 13:33N 40°38' W 074°08'0 0.0
2017-Mar-14 12:33N 40°38' W 074°08'0 0.0
2017-Mar-14 11:33N 40°38' W 074°08'0 0.0
2017-Mar-14 10:32N 40°38' W 074°08'0 0.0
2017-Mar-14 09:33N 40°38' W 074°08'0 0.0
2017-Mar-14 08:33N 40°38' W 074°08'0 0.0
2017-Mar-14 07:32N 40°38' W 074°08'0 0.0
2017-Mar-14 06:33N 40°38' W 074°08'0 0.0
2017-Mar-14 05:33N 40°38' W 074°08'  
Track history (hours):
 
Tides and Currents Weather Stations Pressure Air Temp Water Temp Dewpoint Dewpoint Depression Visibility Wind Speed Wind Dir Waves Ship Positions

Al Cenac

Owner: Caillou Island Towing Co, Inc., Houma, LA. More information available from US FCC via Universal Licensing System and Coast Guard Vessel Documentation Center.

Last reported at 2017-Mar-24 05:33 UTC. Time now 2017-Mar-24 06:13 UTC.
Position N 40°38' W 074°08'.

; draft 10 m.

Type: Tug. MMSI: 367158530.

Date/timePositionNaut miles runAvg speedWind from/ knotsBaromVisibWave heightAir tempDewpointWater temp
2017-Mar-24 05:33N 40°38' W 074°08'0 0.0
2017-Mar-24 04:33N 40°38' W 074°08'0 0.0
2017-Mar-24 03:33N 40°38' W 074°08'0 0.0
2017-Mar-24 02:33N 40°38' W 074°08'0 0.0
2017-Mar-24 01:34N 40°38' W 074°08'0 0.0
2017-Mar-24 00:33N 40°38' W 074°08'0 0.0
2017-Mar-23 23:31N 40°38' W 074°08'2 1.6
2017-Mar-23 22:33N 40°38' W 074°10'0 0.0
2017-Mar-23 21:32N 40°38' W 074°10'4 1.2
2017-Mar-23 18:26N 40°35' W 074°12'4 4.2
2017-Mar-23 17:34N 40°39' W 074°10'1 1.4
2017-Mar-23 16:33N 40°38' W 074°08'0 0.0
2017-Mar-23 15:30N 40°38' W 074°08'0 0.0
2017-Mar-23 14:24N 40°38' W 074°08'0 0.0
2017-Mar-23 13:33N 40°38' W 074°08'2 2.0
2017-Mar-23 12:33N 40°39' W 074°11'1 1.2
2017-Mar-23 11:26N 40°38' W 074°12'2 1.7
2017-Mar-23 10:27N 40°39' W 074°10'0 0.0
2017-Mar-23 09:34N 40°39' W 074°10'2 0.3
2017-Mar-23 04:11N 40°38' W 074°08'0 0.0
2017-Mar-23 03:33N 40°38' W 074°08'0 0.0
2017-Mar-23 02:34N 40°38' W 074°08'0 0.0
2017-Mar-23 01:34N 40°38' W 074°08'8 5.7
2017-Mar-23 00:11N 40°33' W 074°15'1 0.3
2017-Mar-22 21:06N 40°33' W 074°14'4 7.8
2017-Mar-22 20:33N 40°37' W 074°12'3 3.4
2017-Mar-22 19:32N 40°38' W 074°08'0 0.0
2017-Mar-22 18:08N 40°38' W 074°08'6 9.5
2017-Mar-22 17:34N 40°41' W 074°01'1 0.9
2017-Mar-22 16:33N 40°40' W 074°01'0 0.0
2017-Mar-22 15:33N 40°40' W 074°01'2 2.3
2017-Mar-22 14:34N 40°39' W 074°03'4 3.8
2017-Mar-22 13:33N 40°38' W 074°08'0 0.0
2017-Mar-22 12:32N 40°38' W 074°08'0 0.0
2017-Mar-22 11:33N 40°38' W 074°08'0 0.0
2017-Mar-22 10:33N 40°38' W 074°08'0 0.0
2017-Mar-22 09:33N 40°38' W 074°08'0 0.0
2017-Mar-22 08:33N 40°38' W 074°08'0 0.0
2017-Mar-22 07:33N 40°38' W 074°08'0 0.0
2017-Mar-22 06:32N 40°38' W 074°08'0 0.0
2017-Mar-22 05:33N 40°38' W 074°08'0 0.0
2017-Mar-22 04:33N 40°38' W 074°08'0 0.0
2017-Mar-22 03:32N 40°38' W 074°08'0 0.0
2017-Mar-22 02:33N 40°38' W 074°08'0 0.0
2017-Mar-22 01:32N 40°38' W 074°08'0 0.0
2017-Mar-22 00:32N 40°38' W 074°08'2 1.9
2017-Mar-21 23:33N 40°40' W 074°08'4 3.9
2017-Mar-21 22:33N 40°44' W 074°06'3 2.9
2017-Mar-21 21:33N 40°41' W 074°08'2 2.1
2017-Mar-21 20:26N 40°39' W 074°09'0 0.0
2017-Mar-21 19:33N 40°39' W 074°09'1 0.8
2017-Mar-21 18:33N 40°38' W 074°08'0 0.0
2017-Mar-21 17:33N 40°38' W 074°08'0 0.0
2017-Mar-21 16:33N 40°38' W 074°08'0 0.0
2017-Mar-21 15:33N 40°38' W 074°08'0 0.0
2017-Mar-21 14:33N 40°38' W 074°08'0 0.0
2017-Mar-21 13:33N 40°38' W 074°08'0 0.0
2017-Mar-21 12:33N 40°38' W 074°08'0 0.0
2017-Mar-21 11:33N 40°38' W 074°08'0 0.0
2017-Mar-21 10:32N 40°38' W 074°08'0 0.0
2017-Mar-21 09:33N 40°38' W 074°08'0 0.0
2017-Mar-21 08:33N 40°38' W 074°08'1 0.7
2017-Mar-21 07:22N 40°39' W 074°09'2 2.1
2017-Mar-21 06:34N 40°39' W 074°06'2 1.8
2017-Mar-21 05:33N 40°39' W 074°04'0 0.0
2017-Mar-21 04:34N 40°39' W 074°04'0 0.0
2017-Mar-21 03:33N 40°39' W 074°04'0 0.0
2017-Mar-21 02:34N 40°39' W 074°04'0 0.0
2017-Mar-21 01:34N 40°39' W 074°04'0 0.0
2017-Mar-21 00:32N 40°39' W 074°04'1 1.0
2017-Mar-20 23:34N 40°39' W 074°03'0 0.0
2017-Mar-20 22:33N 40°39' W 074°03'0 0.0
2017-Mar-20 21:34N 40°39' W 074°03'0 0.1
2017-Mar-20 20:33N 40°39' W 074°03'0 0.0
2017-Mar-20 19:34N 40°39' W 074°03'0 0.0
2017-Mar-20 18:33N 40°39' W 074°03'0 0.0
2017-Mar-20 17:34N 40°39' W 074°03'0 0.1
2017-Mar-20 16:34N 40°39' W 074°03'0 0.0
2017-Mar-20 15:34N 40°39' W 074°03'0 0.0
2017-Mar-20 14:34N 40°39' W 074°03'0 0.0
2017-Mar-20 13:33N 40°39' W 074°03'0 0.0
2017-Mar-20 12:33N 40°39' W 074°03'0 0.0
2017-Mar-20 11:33N 40°39' W 074°03'0 0.0
2017-Mar-20 10:34N 40°39' W 074°03'0 0.0
2017-Mar-20 09:33N 40°39' W 074°03'3 2.7
2017-Mar-20 08:31N 40°39' W 074°07'4 4.3
2017-Mar-20 07:33N 40°43' W 074°07'1 1.2
2017-Mar-20 06:33N 40°44' W 074°06'0 0.0
2017-Mar-20 05:33N 40°44' W 074°06'0 0.0
2017-Mar-20 04:33N 40°44' W 074°06'3 3.3
2017-Mar-20 03:33N 40°41' W 074°08'3 2.5
2017-Mar-20 02:33N 40°38' W 074°08'0 0.0
2017-Mar-20 01:33N 40°38' W 074°08'0 0.0
2017-Mar-20 00:33N 40°38' W 074°08'0 0.0
2017-Mar-19 23:33N 40°38' W 074°08'0 0.0
2017-Mar-19 22:33N 40°38' W 074°08'0 0.0
2017-Mar-19 21:33N 40°38' W 074°08'0 0.0
2017-Mar-19 20:33N 40°38' W 074°08'0 0.0
2017-Mar-19 19:33N 40°38' W 074°08'0 0.0
2017-Mar-19 18:33N 40°38' W 074°08'0 0.0
2017-Mar-19 17:33N 40°38' W 074°08'0 0.0
2017-Mar-19 16:33N 40°38' W 074°08'0 0.0
2017-Mar-19 15:33N 40°38' W 074°08'0 0.0
2017-Mar-19 14:33N 40°38' W 074°08'0 0.0
2017-Mar-19 13:33N 40°38' W 074°08'0 0.0
2017-Mar-19 12:33N 40°38' W 074°08'0 0.0
2017-Mar-19 11:33N 40°38' W 074°08'0 0.0
2017-Mar-19 10:33N 40°38' W 074°08'0 0.0
2017-Mar-19 09:33N 40°38' W 074°08'0 0.0
2017-Mar-19 08:33N 40°38' W 074°08'0 0.0
2017-Mar-19 07:33N 40°38' W 074°08'0 0.0
2017-Mar-19 06:33N 40°38' W 074°08'0 0.0
2017-Mar-19 05:33N 40°38' W 074°08'0 0.0
2017-Mar-19 04:33N 40°38' W 074°08'0 0.0
2017-Mar-19 03:33N 40°38' W 074°08'0 0.0
2017-Mar-19 02:33N 40°38' W 074°08'0 0.0
2017-Mar-19 01:33N 40°38' W 074°08'0 0.0
2017-Mar-19 00:33N 40°38' W 074°08'0 0.0
2017-Mar-18 23:33N 40°38' W 074°08'0 0.0
2017-Mar-18 22:33N 40°38' W 074°08'0 0.0
2017-Mar-18 21:33N 40°38' W 074°08'0 0.0
2017-Mar-18 20:33N 40°38' W 074°08'0 0.0
2017-Mar-18 19:33N 40°38' W 074°08'0 0.0
2017-Mar-18 18:33N 40°38' W 074°08'0 0.0
2017-Mar-18 17:33N 40°38' W 074°08'0 0.0
2017-Mar-18 16:33N 40°38' W 074°08'0 0.0
2017-Mar-18 15:33N 40°38' W 074°08'0 0.0
2017-Mar-18 14:33N 40°38' W 074°08'0 0.0
2017-Mar-18 13:33N 40°38' W 074°08'0 0.0
2017-Mar-18 12:33N 40°38' W 074°08'0 0.0
2017-Mar-18 11:33N 40°38' W 074°08'0 0.0
2017-Mar-18 10:33N 40°38' W 074°08'0 0.0
2017-Mar-18 09:33N 40°38' W 074°08'0 0.0
2017-Mar-18 08:33N 40°38' W 074°08'0 0.0
2017-Mar-18 07:33N 40°38' W 074°08'0 0.0
2017-Mar-18 06:33N 40°38' W 074°08'0 0.0
2017-Mar-18 05:33N 40°38' W 074°08'0 0.0
2017-Mar-18 04:33N 40°38' W 074°08'0 0.0
2017-Mar-18 03:33N 40°38' W 074°08'0 0.0
2017-Mar-18 02:33N 40°38' W 074°08'0 0.0
2017-Mar-18 01:33N 40°38' W 074°08'0 0.0
2017-Mar-17 22:33N 40°38' W 074°08'0 0.0
2017-Mar-17 21:33N 40°38' W 074°08'0 0.0
2017-Mar-17 20:33N 40°38' W 074°08'0 0.0
2017-Mar-17 19:33N 40°38' W 074°08'0 0.0
2017-Mar-17 18:33N 40°38' W 074°08'0 0.0
2017-Mar-17 17:32N 40°38' W 074°08'0 0.0
2017-Mar-17 16:33N 40°38' W 074°08'0 0.0
2017-Mar-17 15:33N 40°38' W 074°08'0 0.0
2017-Mar-17 14:33N 40°38' W 074°08'0 0.0
2017-Mar-17 13:33N 40°38' W 074°08'0 0.0
2017-Mar-17 12:33N 40°38' W 074°08'0 0.0
2017-Mar-17 11:31N 40°38' W 074°08'0 0.0
2017-Mar-17 10:33N 40°38' W 074°08'0 0.0
2017-Mar-17 09:33N 40°38' W 074°08'0 0.0
2017-Mar-17 08:33N 40°38' W 074°08'0 0.0
2017-Mar-17 07:33N 40°38' W 074°08'0 0.0
2017-Mar-17 06:32N 40°38' W 074°08'0 0.0
2017-Mar-17 05:33N 40°38' W 074°08'0 0.0
2017-Mar-17 04:33N 40°38' W 074°08'0 0.0
2017-Mar-17 03:33N 40°38' W 074°08'0 0.0
2017-Mar-17 02:33N 40°38' W 074°08'0 0.0
2017-Mar-17 01:33N 40°38' W 074°08'0 0.0
2017-Mar-17 00:33N 40°38' W 074°08'0 0.0
2017-Mar-16 23:33N 40°38' W 074°08'0 0.0
2017-Mar-16 22:33N 40°38' W 074°08'0 0.0
2017-Mar-16 21:33N 40°38' W 074°08'0 0.0
2017-Mar-16 20:33N 40°38' W 074°08'0 0.0
2017-Mar-16 19:32N 40°38' W 074°08'0 0.0
2017-Mar-16 18:33N 40°38' W 074°08'0 0.0
2017-Mar-16 17:33N 40°38' W 074°08'0 0.0
2017-Mar-16 16:33N 40°38' W 074°08'0 0.0
2017-Mar-16 15:33N 40°38' W 074°08'0 0.0
2017-Mar-16 13:33N 40°38' W 074°08'0 0.0
2017-Mar-16 12:33N 40°38' W 074°08'0 0.0
2017-Mar-16 11:33N 40°38' W 074°08'0 0.0
2017-Mar-16 10:32N 40°38' W 074°08'0 0.0
2017-Mar-16 09:32N 40°38' W 074°08'0 0.0
2017-Mar-16 08:33N 40°38' W 074°08'0 0.0
2017-Mar-16 07:32N 40°38' W 074°08'0 0.0
2017-Mar-16 06:33N 40°38' W 074°08'0 0.0
2017-Mar-16 05:33N 40°38' W 074°08'0 0.0
2017-Mar-16 04:33N 40°38' W 074°08'0 0.0
2017-Mar-16 03:33N 40°38' W 074°08'0 0.0
2017-Mar-16 02:30N 40°38' W 074°08'0 0.0
2017-Mar-16 01:33N 40°38' W 074°08'0 0.0
2017-Mar-16 00:31N 40°38' W 074°08'0 0.0
2017-Mar-15 23:32N 40°38' W 074°08'0 0.0
2017-Mar-15 22:33N 40°38' W 074°08'0 0.0
2017-Mar-15 21:33N 40°38' W 074°08'0 0.0
2017-Mar-15 20:32N 40°38' W 074°08'0 0.0
2017-Mar-15 19:33N 40°38' W 074°08'0 0.0
2017-Mar-15 18:33N 40°38' W 074°08'0 0.0
2017-Mar-15 17:33N 40°38' W 074°08'0 0.0
2017-Mar-15 16:33N 40°38' W 074°08'0 0.0
2017-Mar-15 15:33N 40°38' W 074°08'0 0.0
2017-Mar-15 14:33N 40°38' W 074°08'0 0.0
2017-Mar-15 13:33N 40°38' W 074°08'0 0.0
2017-Mar-15 12:33N 40°38' W 074°08'0 0.0
2017-Mar-15 11:33N 40°38' W 074°08'0 0.0
2017-Mar-15 10:33N 40°38' W 074°08'0 0.0
2017-Mar-15 09:33N 40°38' W 074°08'0 0.0
2017-Mar-15 08:33N 40°38' W 074°08'0 0.0
2017-Mar-15 07:33N 40°38' W 074°08'0 0.0
2017-Mar-15 06:33N 40°38' W 074°08'0 0.0
2017-Mar-15 05:33N 40°38' W 074°08'0 0.0
2017-Mar-15 04:33N 40°38' W 074°08'0 0.0
2017-Mar-15 03:33N 40°38' W 074°08'0 0.0
2017-Mar-15 02:33N 40°38' W 074°08'0 0.0
2017-Mar-15 01:33N 40°38' W 074°08'0 0.0
2017-Mar-15 00:33N 40°38' W 074°08'0 0.0
2017-Mar-14 23:33N 40°38' W 074°08'0 0.0
2017-Mar-14 22:33N 40°38' W 074°08'0 0.0
2017-Mar-14 21:33N 40°38' W 074°08'0 0.0
2017-Mar-14 20:33N 40°38' W 074°08'0 0.0
2017-Mar-14 19:33N 40°38' W 074°08'0 0.0
2017-Mar-14 18:33N 40°38' W 074°08'0 0.0
2017-Mar-14 17:33N 40°38' W 074°08'0 0.0
2017-Mar-14 16:33N 40°38' W 074°08'0 0.0
2017-Mar-14 15:33N 40°38' W 074°08'0 0.0
2017-Mar-14 14:33N 40°38' W 074°08'0 0.0
2017-Mar-14 13:33N 40°38' W 074°08'0 0.0
2017-Mar-14 12:33N 40°38' W 074°08'0 0.0
2017-Mar-14 11:33N 40°38' W 074°08'0 0.0
2017-Mar-14 10:32N 40°38' W 074°08'0 0.0
2017-Mar-14 09:33N 40°38' W 074°08'0 0.0
2017-Mar-14 08:33N 40°38' W 074°08'0 0.0
2017-Mar-14 07:32N 40°38' W 074°08'0 0.0
2017-Mar-14 06:33N 40°38' W 074°08'0 0.0
2017-Mar-14 05:33N 40°38' W 074°08'  

Dump ship's entire track history